createdAt,value
2023-03-16T00:00:19.392Z,9.02
2023-03-16T00:03:23.176Z,9.02
2023-03-16T00:06:38.938Z,9.00
2023-03-16T00:10:01.035Z,8.95
2023-03-16T00:12:47.666Z,8.94
2023-03-16T00:16:11.054Z,8.93
2023-03-16T00:19:18.477Z,8.93
2023-03-16T00:22:04.902Z,8.94
2023-03-16T00:24:59.522Z,8.94
2023-03-16T00:28:13.518Z,8.95
2023-03-16T00:31:33.349Z,8.94
2023-03-16T00:35:24.700Z,8.93
2023-03-16T00:38:29.394Z,8.93
2023-03-16T00:41:48.602Z,8.92
2023-03-16T00:44:58.805Z,8.90
2023-03-16T00:47:53.147Z,8.91
2023-03-16T00:50:58.564Z,8.92
2023-03-16T00:54:08.589Z,8.94
2023-03-16T00:57:28.883Z,8.95
2023-03-16T01:01:02.615Z,8.98
2023-03-16T01:04:04.696Z,9.00
2023-03-16T01:07:33.876Z,9.00
2023-03-16T01:10:55.062Z,9.00
2023-03-16T01:14:00.690Z,9.00
2023-03-16T01:16:54.155Z,9.00
2023-03-16T01:19:54.546Z,9.00
2023-03-16T01:23:24.557Z,8.99
2023-03-16T01:26:13.858Z,8.97
2023-03-16T01:29:32.468Z,8.97
2023-03-16T01:32:38.583Z,8.96
2023-03-16T01:35:30.306Z,8.94
2023-03-16T01:38:22.848Z,8.91
2023-03-16T01:41:24.610Z,8.83
2023-03-16T01:44:59.911Z,8.75
2023-03-16T01:48:29.230Z,8.66
2023-03-16T01:51:57.514Z,8.61
2023-03-16T01:55:26.973Z,8.56
2023-03-16T01:58:56.435Z,8.49
2023-03-16T02:02:28.572Z,8.39
2023-03-16T02:06:06.971Z,8.28
2023-03-16T02:09:28.742Z,8.14
2023-03-16T02:12:32.067Z,8.01
2023-03-16T02:15:43.267Z,7.87
2023-03-16T02:18:48.202Z,7.74
2023-03-16T02:22:35.938Z,7.62
2023-03-16T02:26:05.410Z,7.48
2023-03-16T02:29:37.658Z,7.34
2023-03-16T02:33:00.734Z,7.22
2023-03-16T02:35:59.757Z,7.11
2023-03-16T02:38:48.189Z,7.02
2023-03-16T02:41:33.838Z,6.94
2023-03-16T02:45:08.159Z,6.84
2023-03-16T02:48:01.266Z,6.72
2023-03-16T02:50:43.056Z,6.61
2023-03-16T02:53:54.030Z,6.51
2023-03-16T02:57:09.520Z,6.42
2023-03-16T03:00:32.123Z,6.34
2023-03-16T03:03:56.486Z,6.25
2023-03-16T03:07:16.643Z,6.14
2023-03-16T03:10:45.914Z,6.07
2023-03-16T03:14:11.969Z,6.02
2023-03-16T03:17:16.149Z,5.94
2023-03-16T03:20:29.997Z,5.88
2023-03-16T03:23:23.940Z,5.80
2023-03-16T03:26:22.757Z,5.74
2023-03-16T03:29:15.014Z,5.69
2023-03-16T03:31:52.456Z,5.64
2023-03-16T03:35:04.754Z,5.59
2023-03-16T03:38:19.212Z,5.53
2023-03-16T03:41:34.271Z,5.49
2023-03-16T03:45:03.618Z,5.45
2023-03-16T03:48:25.582Z,5.41
2023-03-16T03:51:27.519Z,5.36
2023-03-16T03:54:48.228Z,5.32
2023-03-16T03:58:00.203Z,5.28
2023-03-16T04:01:28.758Z,5.26
2023-03-16T04:04:43.536Z,5.26
2023-03-16T04:07:58.089Z,5.23
2023-03-16T04:11:11.415Z,5.19
2023-03-16T04:14:31.527Z,5.15
2023-03-16T04:17:43.965Z,5.13
2023-03-16T04:20:56.231Z,5.10
2023-03-16T04:24:10.889Z,5.05
2023-03-16T04:27:19.517Z,5.02
2023-03-16T04:30:38.360Z,4.98
2023-03-16T04:33:57.414Z,4.96
2023-03-16T04:37:27.134Z,4.92
2023-03-16T04:40:49.466Z,4.89
2023-03-16T04:44:03.078Z,4.86
2023-03-16T04:46:57.032Z,4.85
2023-03-16T04:50:12.028Z,4.83
2023-03-16T04:53:41.944Z,4.81
2023-03-16T04:57:11.417Z,4.79
2023-03-16T05:00:31.450Z,4.79
2023-03-16T05:04:01.079Z,4.83
2023-03-16T05:07:30.355Z,4.84
2023-03-16T05:10:56.259Z,4.81
2023-03-16T05:13:37.150Z,4.81
2023-03-16T05:16:58.919Z,4.80
2023-03-16T05:20:00.162Z,4.77
2023-03-16T05:23:09.648Z,4.74
2023-03-16T05:26:11.936Z,4.71
2023-03-16T05:29:22.458Z,4.71
2023-03-16T05:32:16.852Z,4.70
2023-03-16T05:35:26.312Z,4.69
2023-03-16T05:38:44.957Z,4.66
2023-03-16T05:41:25.896Z,4.65
2023-03-16T05:44:43.544Z,4.64
2023-03-16T05:48:12.938Z,4.63
2023-03-16T05:51:41.836Z,4.61
2023-03-16T05:55:11.159Z,4.59
2023-03-16T05:58:44.248Z,4.56
2023-03-16T06:02:13.760Z,4.53
2023-03-16T06:05:43.272Z,4.52
2023-03-16T06:09:12.624Z,4.51
2023-03-16T06:12:32.182Z,4.48
2023-03-16T06:16:01.515Z,4.45
2023-03-16T06:19:12.127Z,4.40
2023-03-16T06:22:44.279Z,4.38
2023-03-16T06:26:13.425Z,4.35
2023-03-16T06:29:45.748Z,4.30
2023-03-16T06:32:43.421Z,4.25
2023-03-16T06:35:45.975Z,4.23
2023-03-16T06:39:04.592Z,4.21
2023-03-16T06:41:56.380Z,4.18
2023-03-16T06:44:59.989Z,4.16
2023-03-16T06:48:12.603Z,4.14
2023-03-16T06:51:16.686Z,4.11
2023-03-16T06:54:48.584Z,4.09
2023-03-16T06:58:17.955Z,4.05
2023-03-16T07:01:47.282Z,4.01
2023-03-16T07:05:16.632Z,3.97
2023-03-16T07:08:45.678Z,3.93
2023-03-16T07:12:15.190Z,3.90
2023-03-16T07:15:44.448Z,3.93
2023-03-16T07:19:13.714Z,3.93
2023-03-16T07:22:42.933Z,3.92
2023-03-16T07:26:12.558Z,3.89
2023-03-16T07:29:06.022Z,3.86
2023-03-16T07:32:17.974Z,3.85
2023-03-16T07:35:20.776Z,3.84
2023-03-16T07:38:21.616Z,3.82
2023-03-16T07:41:00.034Z,3.81
2023-03-16T07:44:29.604Z,3.80
2023-03-16T07:47:58.638Z,3.80
2023-03-16T07:51:28.322Z,3.77
2023-03-16T07:54:57.825Z,3.75
2023-03-16T07:58:19.501Z,3.75
2023-03-16T08:01:42.594Z,3.78
2023-03-16T08:04:36.291Z,3.75
2023-03-16T08:07:45.881Z,3.71
2023-03-16T08:11:15.256Z,3.68
2023-03-16T08:14:40.107Z,3.64
2023-03-16T08:18:19.000Z,3.60
2023-03-16T08:22:01.078Z,3.61
2023-03-16T08:25:32.880Z,3.61
2023-03-16T08:29:05.127Z,3.57
2023-03-16T08:32:28.042Z,3.51
2023-03-16T08:35:01.619Z,3.45
2023-03-16T08:38:11.092Z,3.42
2023-03-16T08:41:30.858Z,3.40
2023-03-16T08:44:36.047Z,3.37
2023-03-16T08:47:47.949Z,3.32
2023-03-16T08:50:41.134Z,3.27
2023-03-16T08:53:42.375Z,3.23
2023-03-16T08:57:04.559Z,3.18
2023-03-16T09:00:36.523Z,3.12
2023-03-16T09:03:48.305Z,3.07
2023-03-16T09:06:44.163Z,3.03
2023-03-16T09:10:13.294Z,3.00
2023-03-16T09:13:25.546Z,2.96
2023-03-16T09:16:43.970Z,2.93
2023-03-16T09:20:15.097Z,2.91
2023-03-16T09:23:39.236Z,2.91
2023-03-16T09:26:57.887Z,2.87
2023-03-16T09:30:27.910Z,2.84
2023-03-16T09:37:04.839Z,2.77
2023-03-16T09:40:34.157Z,2.73
2023-03-16T09:44:19.196Z,2.69
2023-03-16T09:47:18.121Z,2.67
2023-03-16T09:50:35.246Z,2.65
2023-03-16T09:54:17.086Z,2.61
2023-03-16T09:57:09.822Z,2.55
2023-03-16T10:00:27.832Z,2.53
2023-03-16T10:03:55.690Z,2.52
2023-03-16T10:07:22.437Z,2.53
2023-03-16T10:10:42.101Z,2.49
2023-03-16T10:14:14.177Z,2.48
2023-03-16T10:17:52.213Z,2.49
2023-03-16T10:21:21.220Z,2.50
2023-03-16T10:24:33.927Z,2.47
2023-03-16T10:27:58.817Z,2.44
2023-03-16T10:31:13.042Z,2.43
2023-03-16T10:34:34.917Z,2.41
2023-03-16T10:38:03.899Z,2.38
2023-03-16T10:41:28.807Z,2.35
2023-03-16T10:44:37.705Z,2.33
2023-03-16T10:47:44.182Z,2.33
2023-03-16T10:51:06.439Z,2.29
2023-03-16T10:54:35.852Z,2.26
2023-03-16T10:58:13.266Z,2.23
2023-03-16T11:01:42.576Z,2.18
2023-03-16T11:05:14.776Z,2.14
2023-03-16T11:08:37.725Z,2.11
2023-03-16T11:12:02.046Z,2.08
2023-03-16T11:15:30.514Z,2.07
2023-03-16T11:18:21.470Z,2.06
2023-03-16T11:21:40.784Z,2.05
2023-03-16T11:25:12.529Z,2.05
2023-03-16T11:28:35.599Z,2.11
2023-03-16T11:32:11.314Z,2.18
2023-03-16T11:35:20.558Z,2.20
2023-03-16T11:38:38.661Z,2.18
2023-03-16T11:42:11.028Z,2.14
2023-03-16T11:45:40.159Z,2.09
2023-03-16T11:49:14.356Z,2.10
2023-03-16T11:52:52.345Z,2.12
2023-03-16T11:56:21.610Z,2.09
2023-03-16T12:00:03.818Z,2.04
2023-03-16T12:03:25.971Z,1.99
2023-03-16T12:06:42.367Z,1.95
2023-03-16T12:09:32.794Z,1.91
2023-03-16T12:12:59.950Z,1.88
2023-03-16T12:16:22.144Z,1.83
2023-03-16T12:19:45.018Z,1.81
2023-03-16T12:23:07.814Z,1.85
2023-03-16T12:26:18.838Z,1.90
2023-03-16T12:29:54.214Z,1.93
2023-03-16T12:33:14.522Z,1.92
2023-03-16T12:36:24.946Z,1.90
2023-03-16T12:39:33.987Z,1.88
2023-03-16T12:43:01.545Z,1.83
2023-03-16T12:46:49.083Z,1.81
2023-03-16T12:49:35.816Z,1.77
2023-03-16T12:52:43.834Z,1.73
2023-03-16T12:56:12.627Z,1.71
2023-03-16T12:58:52.791Z,1.68
2023-03-16T13:01:56.009Z,1.66
2023-03-16T13:04:46.226Z,1.63
2023-03-16T13:07:47.528Z,1.60
2023-03-16T13:11:07.680Z,1.56
2023-03-16T13:14:22.720Z,1.52
2023-03-16T13:17:25.195Z,1.50
2023-03-16T13:20:42.966Z,1.51
2023-03-16T13:24:36.281Z,1.49
2023-03-16T13:27:50.141Z,1.47
2023-03-16T13:30:47.668Z,1.48
2023-03-16T13:34:01.266Z,1.47
2023-03-16T13:36:32.889Z,1.49
2023-03-16T13:39:48.580Z,1.49
2023-03-16T13:42:38.495Z,1.47
2023-03-16T13:45:34.002Z,1.43
2023-03-16T13:48:47.379Z,1.40
2023-03-16T13:51:43.165Z,1.37
2023-03-16T13:55:03.610Z,1.35
2023-03-16T13:57:45.221Z,1.34
2023-03-16T14:00:42.562Z,1.32
2023-03-16T14:03:48.374Z,1.32
2023-03-16T14:06:29.348Z,1.32
2023-03-16T14:09:36.792Z,1.30
2023-03-16T14:13:06.004Z,1.26
2023-03-16T14:16:40.329Z,1.24
2023-03-16T14:20:13.337Z,1.24
2023-03-16T14:23:05.651Z,1.23
2023-03-16T14:25:44.387Z,1.22
2023-03-16T14:28:55.764Z,1.19
2023-03-16T14:31:54.781Z,1.18
2023-03-16T14:35:15.699Z,1.19
2023-03-16T14:39:03.456Z,1.19
2023-03-16T14:42:32.372Z,1.18
2023-03-16T14:45:29.981Z,1.17
2023-03-16T14:48:52.559Z,1.17
2023-03-16T14:52:06.248Z,1.19
2023-03-16T14:55:17.827Z,1.24
2023-03-16T14:58:23.321Z,1.27
2023-03-16T15:01:31.372Z,1.28
2023-03-16T15:04:42.589Z,1.26
2023-03-16T15:07:57.937Z,1.25
2023-03-16T15:10:48.888Z,1.26
2023-03-16T15:13:47.032Z,1.28
2023-03-16T15:17:16.275Z,1.31
2023-03-16T15:20:36.566Z,1.32
2023-03-16T15:23:18.856Z,1.33
2023-03-16T15:26:29.925Z,1.33
2023-03-16T15:29:20.884Z,1.37
2023-03-16T15:32:47.604Z,1.42
2023-03-16T15:36:09.632Z,1.48
2023-03-16T15:39:31.981Z,1.53
2023-03-16T15:42:34.204Z,1.62
2023-03-16T15:45:53.327Z,1.69
2023-03-16T15:49:02.948Z,1.76
2023-03-16T15:51:43.075Z,1.83
2023-03-16T15:55:01.126Z,1.89
2023-03-16T15:58:09.013Z,1.95
2023-03-16T16:01:21.190Z,2.00
2023-03-16T16:04:00.150Z,2.06
2023-03-16T16:06:58.117Z,2.11
2023-03-16T16:09:30.123Z,2.15
2023-03-16T16:12:48.199Z,2.18
2023-03-16T16:15:22.976Z,2.24
2023-03-16T16:18:20.264Z,2.29
2023-03-16T16:21:00.230Z,2.35
2023-03-16T16:24:09.365Z,2.40
2023-03-16T16:27:02.173Z,2.45
2023-03-16T16:30:05.547Z,2.51
2023-03-16T16:33:24.906Z,2.58
2023-03-16T16:36:28.908Z,2.65
2023-03-16T16:39:48.763Z,2.74
2023-03-16T16:42:38.654Z,2.83
2023-03-16T16:45:18.075Z,2.89
2023-03-16T16:48:12.004Z,2.95
2023-03-16T16:51:30.746Z,3.01
2023-03-16T16:54:03.173Z,3.09
2023-03-16T16:56:40.262Z,3.15
2023-03-16T16:59:48.368Z,3.21
2023-03-16T17:02:39.809Z,3.27
2023-03-16T17:05:28.194Z,3.32
2023-03-16T17:08:05.046Z,3.38
2023-03-16T17:11:10.821Z,3.43
2023-03-16T17:14:03.379Z,3.48
2023-03-16T17:16:38.408Z,3.54
2023-03-16T17:19:52.563Z,3.60
2023-03-16T17:23:21.773Z,3.67
2023-03-16T17:26:10.912Z,3.74
2023-03-16T17:28:42.902Z,3.79
2023-03-16T17:31:40.038Z,3.83
2023-03-16T17:34:24.629Z,3.89
2023-03-16T17:37:02.851Z,3.93
2023-03-16T17:40:01.913Z,3.99
2023-03-16T17:42:48.811Z,4.04
2023-03-16T17:45:37.906Z,4.07
2023-03-16T17:48:48.112Z,4.11
2023-03-16T17:51:58.711Z,4.17
2023-03-16T17:55:30.637Z,4.24
2023-03-16T17:58:27.306Z,4.33
2023-03-16T18:01:00.694Z,4.39
2023-03-16T18:03:52.733Z,4.44
2023-03-16T18:06:54.623Z,4.51
2023-03-16T18:09:46.687Z,4.56
2023-03-16T18:13:04.807Z,4.62
2023-03-16T18:16:17.549Z,4.69
2023-03-16T18:18:59.609Z,4.75
2023-03-16T18:22:01.107Z,4.79
2023-03-16T18:25:27.504Z,4.85
2023-03-16T18:29:34.450Z,4.93
2023-03-16T18:32:35.665Z,5.02
2023-03-16T18:36:05.873Z,5.10
2023-03-16T18:39:29.681Z,5.19
2023-03-16T18:43:01.272Z,5.28
2023-03-16T18:46:31.025Z,5.36
2023-03-16T18:50:00.346Z,5.44
2023-03-16T18:53:09.331Z,5.53
2023-03-16T18:56:14.771Z,5.62
2023-03-16T18:59:42.951Z,5.71
2023-03-16T19:03:11.368Z,5.79
2023-03-16T19:06:26.245Z,5.88
2023-03-16T19:09:35.445Z,5.95
2023-03-16T19:12:47.134Z,6.03
2023-03-16T19:16:16.227Z,6.09
2023-03-16T19:19:45.367Z,6.16
2023-03-16T19:23:14.763Z,6.22
2023-03-16T19:26:44.204Z,6.30
2023-03-16T19:30:13.895Z,6.37
2023-03-16T19:33:33.159Z,6.47
2023-03-16T19:37:05.909Z,6.56
2023-03-16T19:40:10.627Z,6.62
2023-03-16T19:43:40.048Z,6.68
2023-03-16T19:47:00.372Z,6.75
2023-03-16T19:50:20.001Z,6.82
2023-03-16T19:53:49.350Z,6.91
2023-03-16T19:57:02.021Z,7.00
2023-03-16T20:00:31.958Z,7.02
2023-03-16T20:04:29.490Z,7.02
2023-03-16T20:06:49.785Z,7.04
2023-03-16T20:09:23.519Z,7.10
2023-03-16T20:11:55.615Z,7.19
2023-03-16T20:15:31.636Z,7.26
2023-03-16T20:18:16.441Z,7.33
2023-03-16T20:21:45.625Z,7.38
2023-03-16T20:24:54.997Z,7.47
2023-03-16T20:28:24.145Z,7.61
2023-03-16T20:31:05.098Z,7.75
2023-03-16T20:33:46.470Z,7.86
2023-03-16T20:36:18.705Z,7.96
2023-03-16T20:39:32.131Z,8.03
2023-03-16T20:42:07.740Z,8.12
2023-03-16T20:44:36.925Z,8.18
2023-03-16T20:47:09.186Z,8.25
2023-03-16T20:49:38.012Z,8.32
2023-03-16T20:52:17.499Z,8.39
2023-03-16T20:54:47.934Z,8.47
2023-03-16T20:57:23.814Z,8.54
2023-03-16T20:59:55.019Z,8.60
2023-03-16T21:02:34.698Z,8.65
2023-03-16T21:05:06.117Z,8.69
2023-03-16T21:07:35.478Z,8.70
2023-03-16T21:10:04.717Z,8.74
2023-03-16T21:12:40.327Z,8.79
2023-03-16T21:15:34.587Z,8.82
2023-03-16T21:18:09.224Z,8.88
2023-03-16T21:20:38.498Z,8.92
2023-03-16T21:23:18.193Z,8.95
2023-03-16T21:25:59.802Z,8.97
2023-03-16T21:28:33.468Z,9.00
2023-03-16T21:31:18.242Z,9.04
2023-03-16T21:33:58.948Z,9.09
2023-03-16T21:36:29.161Z,9.14
2023-03-16T21:39:32.806Z,9.19
2023-03-16T21:42:05.141Z,9.24
2023-03-16T21:44:36.988Z,9.28
2023-03-16T21:47:26.391Z,9.32
2023-03-16T21:49:55.712Z,9.37
2023-03-16T21:52:26.929Z,9.43
2023-03-16T21:55:03.067Z,9.48
2023-03-16T21:57:52.347Z,9.53
2023-03-16T22:00:39.254Z,9.58
2023-03-16T22:03:22.233Z,9.63
2023-03-16T22:05:54.886Z,9.67
2023-03-16T22:08:30.912Z,9.72
2023-03-16T22:11:04.936Z,9.75
2023-03-16T22:13:37.013Z,9.80
2023-03-16T22:16:19.871Z,9.85
2023-03-16T22:19:49.015Z,9.88
2023-03-16T22:22:34.907Z,9.95
2023-03-16T22:25:30.443Z,9.99
2023-03-16T22:28:00.000Z,10.03
2023-03-16T22:30:33.362Z,10.06
2023-03-16T22:33:02.700Z,10.10
2023-03-16T22:35:47.508Z,10.13
2023-03-16T22:38:39.472Z,10.16
2023-03-16T22:41:33.006Z,10.18
2023-03-16T22:44:02.854Z,10.19
2023-03-16T22:46:47.533Z,10.22
2023-03-16T22:49:27.770Z,10.26
2023-03-16T22:51:58.878Z,10.26
2023-03-16T22:54:40.005Z,10.24
2023-03-16T22:57:10.229Z,10.23
2023-03-16T22:59:39.406Z,10.24
2023-03-16T23:02:37.982Z,10.23
2023-03-16T23:05:30.360Z,10.23
2023-03-16T23:08:03.576Z,10.24
2023-03-16T23:10:33.789Z,10.25
2023-03-16T23:13:03.380Z,10.26
2023-03-16T23:15:44.359Z,10.25
2023-03-16T23:18:33.133Z,10.23
2023-03-16T23:21:08.574Z,10.23
2023-03-16T23:23:38.268Z,10.24
2023-03-16T23:26:20.486Z,10.26
2023-03-16T23:28:50.805Z,10.27
2023-03-16T23:31:23.614Z,10.27
2023-03-16T23:33:56.012Z,10.27
2023-03-16T23:36:34.761Z,10.28
2023-03-16T23:39:04.616Z,10.30
2023-03-16T23:42:03.879Z,10.34
2023-03-16T23:45:23.422Z,10.36
2023-03-16T23:48:05.106Z,10.39
2023-03-16T23:51:09.494Z,10.41
2023-03-16T23:53:45.290Z,10.44
2023-03-16T23:56:49.286Z,10.50
